createdAt,value
2022-12-27T00:01:21.518Z,2.50
2022-12-27T00:03:51.680Z,2.28
2022-12-27T00:06:25.188Z,1.85
2022-12-27T00:08:57.577Z,1.60
2022-12-27T00:11:33.120Z,2.03
2022-12-27T00:14:04.969Z,1.63
2022-12-27T00:16:36.196Z,1.90
2022-12-27T00:19:07.347Z,2.28
2022-12-27T00:21:38.038Z,1.88
2022-12-27T00:24:08.335Z,2.38
2022-12-27T00:26:40.457Z,1.95
2022-12-27T00:29:11.075Z,1.95
2022-12-27T00:31:41.783Z,1.75
2022-12-27T00:34:12.599Z,2.00
2022-12-27T00:36:43.090Z,2.03
2022-12-27T00:39:13.439Z,2.10
2022-12-27T00:41:43.943Z,2.42
2022-12-27T00:44:13.830Z,1.80
2022-12-27T00:46:44.313Z,1.92
2022-12-27T00:49:14.483Z,3.22
2022-12-27T00:51:45.008Z,2.10
2022-12-27T00:54:15.057Z,2.30
2022-12-27T00:56:45.504Z,1.75
2022-12-27T00:59:15.682Z,1.83
2022-12-27T01:01:49.200Z,2.33
2022-12-27T01:04:19.456Z,2.17
2022-12-27T01:06:49.992Z,2.58
2022-12-27T01:09:20.046Z,1.95
2022-12-27T01:11:50.584Z,2.40
2022-12-27T01:14:21.027Z,2.50
2022-12-27T01:16:51.567Z,2.22
2022-12-27T01:19:21.756Z,2.17
2022-12-27T01:21:52.185Z,2.70
2022-12-27T01:24:22.395Z,2.88
2022-12-27T01:26:52.844Z,2.40
2022-12-27T01:29:22.812Z,2.40
2022-12-27T01:31:53.617Z,2.50
2022-12-27T01:34:23.752Z,2.50
2022-12-27T01:36:54.275Z,2.53
2022-12-27T01:39:24.471Z,2.63
2022-12-27T01:42:13.348Z,3.00
2022-12-27T01:44:50.655Z,3.03
2022-12-27T01:47:32.697Z,3.05
2022-12-27T01:50:08.707Z,2.90
2022-12-27T01:53:03.393Z,3.08
2022-12-27T01:55:33.474Z,3.65
2022-12-27T01:58:16.510Z,3.55
2022-12-27T02:00:49.518Z,2.63
2022-12-27T02:03:33.503Z,3.42
2022-12-27T02:06:05.775Z,2.92
2022-12-27T02:08:54.361Z,2.65
2022-12-27T02:11:48.323Z,3.10
2022-12-27T02:14:31.046Z,2.38
2022-12-27T02:17:04.479Z,2.22
2022-12-27T02:19:57.905Z,2.70
2022-12-27T02:22:56.529Z,2.50
2022-12-27T02:26:06.879Z,2.40
2022-12-27T02:29:01.565Z,2.22
2022-12-27T02:31:36.130Z,2.20
2022-12-27T02:34:20.316Z,2.97
2022-12-27T02:36:54.224Z,2.63
2022-12-27T02:39:26.676Z,3.10
2022-12-27T02:42:18.871Z,3.03
2022-12-27T02:45:08.669Z,2.85
2022-12-27T02:47:58.778Z,2.92
2022-12-27T02:50:59.130Z,2.45
2022-12-27T02:54:05.144Z,3.33
2022-12-27T02:57:11.062Z,2.90
2022-12-27T03:00:13.044Z,2.72
2022-12-27T03:03:19.307Z,2.72
2022-12-27T03:06:25.775Z,3.45
2022-12-27T03:09:39.756Z,3.65
2022-12-27T03:13:15.628Z,3.58
2022-12-27T03:16:13.335Z,3.85
2022-12-27T03:18:53.075Z,3.75
2022-12-27T03:21:52.327Z,4.35
2022-12-27T03:24:45.647Z,3.70
2022-12-27T03:27:43.799Z,4.93
2022-12-27T03:30:33.294Z,5.90
2022-12-27T03:33:16.691Z,5.32
2022-12-27T03:36:14.179Z,4.85
2022-12-27T03:39:01.995Z,4.82
2022-12-27T03:42:07.290Z,5.70
2022-12-27T03:44:38.451Z,4.45
2022-12-27T03:47:32.980Z,5.03
2022-12-27T03:50:16.879Z,4.40
2022-12-27T03:53:01.532Z,4.72
2022-12-27T03:55:33.651Z,4.43
2022-12-27T03:58:04.522Z,4.90
2022-12-27T04:00:34.719Z,4.45
2022-12-27T04:03:05.832Z,4.90
2022-12-27T04:05:35.949Z,4.85
2022-12-27T04:08:24.892Z,5.00
2022-12-27T04:11:13.498Z,5.18
2022-12-27T04:14:02.060Z,5.03
2022-12-27T04:16:50.487Z,5.10
2022-12-27T04:19:39.391Z,5.32
2022-12-27T04:22:27.489Z,5.57
2022-12-27T04:25:16.033Z,4.22
2022-12-27T04:28:04.358Z,4.60
2022-12-27T04:30:53.515Z,5.63
2022-12-27T04:33:41.737Z,5.13
2022-12-27T04:36:12.208Z,5.03
2022-12-27T04:38:42.316Z,5.65
2022-12-27T04:41:31.041Z,4.93
2022-12-27T04:44:19.259Z,5.22
2022-12-27T04:47:08.042Z,4.88
2022-12-27T04:49:56.272Z,6.30
2022-12-27T04:52:45.285Z,5.53
2022-12-27T04:55:29.597Z,5.43
2022-12-27T04:58:00.664Z,5.72
2022-12-27T05:00:50.864Z,5.45
2022-12-27T05:03:24.599Z,6.72
2022-12-27T05:05:55.612Z,6.50
2022-12-27T05:08:44.506Z,5.43
2022-12-27T05:11:33.172Z,6.80
2022-12-27T05:14:05.560Z,5.75
2022-12-27T05:16:44.177Z,6.10
2022-12-27T05:19:16.461Z,5.25
2022-12-27T05:22:07.139Z,5.03
2022-12-27T05:24:55.818Z,5.53
2022-12-27T05:27:26.100Z,4.68
2022-12-27T05:29:56.614Z,4.90
2022-12-27T05:32:26.700Z,4.00
2022-12-27T05:34:57.147Z,4.03
2022-12-27T05:37:27.225Z,4.93
2022-12-27T05:39:57.674Z,4.50
2022-12-27T05:42:27.753Z,4.50
2022-12-27T05:44:58.476Z,4.57
2022-12-27T05:47:28.628Z,3.92
2022-12-27T05:49:59.148Z,4.63
2022-12-27T05:52:29.256Z,5.85
2022-12-27T05:55:00.113Z,5.13
2022-12-27T05:57:30.435Z,5.95
2022-12-27T06:00:01.049Z,6.63
2022-12-27T06:02:33.758Z,6.20
2022-12-27T06:05:04.614Z,6.15
2022-12-27T06:07:36.185Z,6.72
2022-12-27T06:10:09.189Z,8.00
2022-12-27T06:12:39.951Z,6.00
2022-12-27T06:15:12.933Z,5.50
2022-12-27T06:17:47.645Z,5.60
2022-12-27T06:20:18.370Z,5.07
2022-12-27T06:22:49.100Z,6.30
2022-12-27T06:25:20.007Z,6.47
2022-12-27T06:27:50.188Z,8.40
2022-12-27T06:30:21.041Z,6.80
2022-12-27T06:32:51.160Z,6.65
2022-12-27T06:35:21.899Z,7.43
2022-12-27T06:37:51.749Z,6.45
2022-12-27T06:40:23.091Z,7.85
2022-12-27T06:42:56.121Z,4.70
2022-12-27T06:45:26.823Z,6.10
2022-12-27T06:47:57.014Z,5.63
2022-12-27T06:50:28.354Z,5.50
2022-12-27T06:52:58.413Z,5.93
2022-12-27T06:55:29.280Z,6.65
2022-12-27T06:57:59.313Z,6.20
2022-12-27T07:00:31.844Z,5.85
2022-12-27T07:03:01.915Z,7.20
2022-12-27T07:05:31.938Z,6.20
2022-12-27T07:08:03.162Z,5.97
2022-12-27T07:10:33.621Z,5.75
2022-12-27T07:13:07.172Z,7.05
2022-12-27T07:15:37.290Z,5.75
2022-12-27T07:18:07.772Z,5.22
2022-12-27T07:20:37.837Z,5.53
2022-12-27T07:23:07.702Z,4.57
2022-12-27T07:25:38.114Z,6.28
2022-12-27T07:28:08.364Z,5.75
2022-12-27T07:30:45.868Z,5.75
2022-12-27T07:33:16.036Z,6.47
2022-12-27T07:38:15.865Z,4.97
2022-12-27T07:40:45.676Z,4.93
2022-12-27T07:45:45.356Z,4.53
2022-12-27T07:48:18.099Z,3.63
2022-12-27T07:50:57.612Z,5.93
2022-12-27T07:53:27.926Z,4.28
2022-12-27T07:55:58.573Z,4.53
2022-12-27T07:58:31.618Z,4.57
2022-12-27T08:01:02.217Z,4.97
2022-12-27T08:03:33.411Z,6.60
2022-12-27T08:06:04.133Z,6.70
2022-12-27T08:08:41.950Z,6.75
2022-12-27T08:11:12.444Z,6.82
2022-12-27T08:16:18.828Z,7.78
2022-12-27T08:18:49.947Z,7.50
2022-12-27T08:21:20.164Z,7.63
2022-12-27T08:23:51.047Z,6.05
2022-12-27T08:26:21.071Z,5.85
2022-12-27T08:28:52.008Z,5.57
2022-12-27T08:33:58.441Z,4.90
2022-12-27T08:36:53.988Z,4.28
2022-12-27T08:39:20.454Z,4.68
2022-12-27T08:41:50.538Z,4.43
2022-12-27T08:44:21.105Z,4.63
2022-12-27T08:46:51.455Z,4.63
2022-12-27T08:49:21.949Z,5.05
2022-12-27T08:51:52.088Z,4.07
2022-12-27T08:54:22.765Z,4.95
2022-12-27T08:56:52.834Z,3.72
2022-12-27T08:59:22.934Z,3.92
2022-12-27T09:01:53.558Z,2.78
2022-12-27T09:04:26.406Z,3.15
2022-12-27T09:06:56.871Z,3.33
2022-12-27T09:09:26.803Z,2.92
2022-12-27T09:11:57.517Z,3.63
2022-12-27T09:14:27.591Z,2.97
2022-12-27T09:16:58.792Z,3.40
2022-12-27T09:19:30.077Z,2.85
2022-12-27T09:22:00.529Z,2.60
2022-12-27T09:24:30.585Z,3.05
2022-12-27T09:27:01.080Z,3.67
2022-12-27T09:29:31.632Z,3.20
2022-12-27T09:32:02.164Z,3.47
2022-12-27T09:34:32.292Z,3.20
2022-12-27T09:37:02.769Z,3.45
2022-12-27T09:39:32.856Z,3.53
2022-12-27T09:45:15.722Z,2.70
2022-12-27T09:47:53.189Z,3.38
2022-12-27T09:50:32.892Z,3.25
2022-12-27T09:53:43.246Z,3.03
2022-12-27T09:56:19.840Z,3.30
2022-12-27T09:58:55.997Z,3.80
2022-12-27T10:01:33.850Z,3.28
2022-12-27T10:04:05.105Z,2.70
2022-12-27T10:06:50.483Z,2.13
2022-12-27T10:09:47.682Z,2.10
2022-12-27T10:12:51.180Z,2.60
2022-12-27T10:15:33.447Z,2.05
2022-12-27T10:18:16.270Z,2.35
2022-12-27T10:21:09.625Z,2.10
2022-12-27T10:23:43.738Z,1.90
2022-12-27T10:26:20.187Z,1.73
2022-12-27T10:31:47.352Z,1.52
2022-12-27T10:34:25.512Z,2.00
2022-12-27T10:36:55.726Z,1.80
2022-12-27T10:39:31.923Z,1.75
2022-12-27T10:42:22.674Z,1.75
2022-12-27T10:44:53.191Z,1.85
2022-12-27T10:47:28.034Z,1.98
2022-12-27T10:50:12.789Z,1.40
2022-12-27T10:52:43.030Z,2.03
2022-12-27T10:55:39.232Z,2.00
2022-12-27T10:58:27.800Z,1.60
2022-12-27T11:00:59.523Z,2.03
2022-12-27T11:03:29.702Z,2.13
2022-12-27T11:06:24.929Z,3.15
2022-12-27T11:08:56.718Z,1.88
2022-12-27T11:11:31.104Z,1.60
2022-12-27T11:14:22.257Z,1.95
2022-12-27T11:16:52.800Z,1.23
2022-12-27T11:19:29.057Z,1.40
2022-12-27T11:21:59.632Z,1.20
2022-12-27T11:24:29.670Z,1.50
2022-12-27T11:27:01.442Z,1.60
2022-12-27T11:29:33.888Z,1.45
2022-12-27T11:32:10.292Z,1.50
2022-12-27T11:34:45.919Z,1.02
2022-12-27T11:37:21.233Z,1.27
2022-12-27T11:39:53.699Z,1.35
2022-12-27T11:42:24.238Z,1.70
2022-12-27T11:45:35.720Z,1.45
2022-12-27T11:48:46.580Z,1.60
2022-12-27T11:51:42.104Z,1.30
2022-12-27T11:54:38.164Z,1.92
2022-12-27T11:57:39.280Z,1.48
2022-12-27T12:00:26.972Z,1.38
2022-12-27T12:03:14.957Z,1.55
2022-12-27T12:06:13.404Z,1.73
2022-12-27T12:09:01.651Z,1.65
2022-12-27T12:11:55.610Z,1.48
2022-12-27T12:14:47.418Z,1.63
2022-12-27T12:17:36.484Z,1.80
2022-12-27T12:20:13.061Z,1.60
2022-12-27T12:22:59.111Z,1.50
2022-12-27T12:25:56.387Z,1.50
2022-12-27T12:29:04.319Z,1.70
2022-12-27T12:31:40.509Z,2.10
2022-12-27T12:34:47.381Z,1.73
2022-12-27T12:37:35.272Z,1.85
2022-12-27T12:40:39.463Z,1.38
2022-12-27T12:46:04.760Z,1.58
2022-12-27T12:48:53.315Z,1.75
2022-12-27T12:51:38.671Z,1.50
2022-12-27T12:54:26.052Z,1.85
2022-12-27T12:57:21.282Z,1.50
2022-12-27T13:00:03.089Z,1.67
2022-12-27T13:02:51.508Z,1.55
2022-12-27T13:05:51.564Z,1.80
2022-12-27T13:08:31.324Z,1.58
2022-12-27T13:11:26.778Z,1.90
2022-12-27T13:14:26.250Z,2.20
2022-12-27T13:17:41.427Z,2.67
2022-12-27T13:20:36.662Z,1.63
2022-12-27T13:23:32.300Z,1.83
2022-12-27T13:26:15.026Z,1.20
2022-12-27T13:29:18.974Z,1.50
2022-12-27T13:32:15.415Z,1.52
2022-12-27T13:35:21.687Z,1.65
2022-12-27T13:37:59.772Z,1.60
2022-12-27T13:40:59.150Z,2.03
2022-12-27T13:43:52.428Z,1.63
2022-12-27T13:46:47.443Z,2.13
2022-12-27T13:49:49.150Z,1.60
2022-12-27T13:52:37.087Z,2.08
2022-12-27T13:55:08.627Z,1.60
2022-12-27T13:58:01.165Z,1.90
2022-12-27T14:00:59.740Z,2.00
2022-12-27T14:03:50.873Z,2.10
2022-12-27T14:06:30.924Z,1.75
2022-12-27T14:09:25.239Z,2.10
2022-12-27T14:12:29.043Z,1.90
2022-12-27T14:15:05.565Z,1.40
2022-12-27T14:17:44.937Z,1.65
2022-12-27T14:20:56.073Z,1.77
2022-12-27T14:23:43.033Z,2.13
2022-12-27T14:26:24.699Z,1.92
2022-12-27T14:28:59.708Z,1.92
2022-12-27T14:32:20.586Z,1.75
2022-12-27T14:35:12.022Z,1.70
2022-12-27T14:37:56.829Z,1.80
2022-12-27T14:40:46.061Z,2.10
2022-12-27T14:44:06.948Z,1.40
2022-12-27T14:47:14.348Z,2.05
2022-12-27T14:50:18.104Z,1.75
2022-12-27T14:53:32.631Z,1.52
2022-12-27T14:56:23.061Z,1.83
2022-12-27T14:59:22.732Z,1.85
2022-12-27T15:02:10.455Z,1.45
2022-12-27T15:04:54.396Z,1.40
2022-12-27T15:07:46.142Z,2.40
2022-12-27T15:10:44.542Z,1.52
2022-12-27T15:13:37.339Z,1.58
2022-12-27T15:16:16.496Z,2.03
2022-12-27T15:19:03.780Z,1.95
2022-12-27T15:22:03.228Z,1.40
2022-12-27T15:25:20.980Z,2.00
2022-12-27T15:28:17.088Z,1.70
2022-12-27T15:31:01.630Z,1.50
2022-12-27T15:33:43.909Z,1.75
2022-12-27T15:36:18.288Z,1.50
2022-12-27T15:38:54.894Z,1.80
2022-12-27T15:41:37.380Z,1.80
2022-12-27T15:44:20.469Z,1.50
2022-12-27T15:47:21.183Z,1.50
2022-12-27T15:50:36.881Z,2.00
2022-12-27T15:53:24.670Z,1.70
2022-12-27T15:56:22.970Z,2.00
2022-12-27T15:59:29.569Z,1.77
2022-12-27T16:02:30.847Z,1.88
2022-12-27T16:05:27.206Z,2.40
2022-12-27T16:08:00.659Z,1.80
2022-12-27T16:10:34.495Z,1.90
2022-12-27T16:13:13.855Z,1.40
2022-12-27T16:15:48.915Z,2.55
2022-12-27T16:18:19.450Z,1.60
2022-12-27T16:21:21.374Z,1.83
2022-12-27T16:24:05.354Z,1.88
2022-12-27T16:26:37.686Z,1.67
2022-12-27T16:29:14.726Z,2.05
2022-12-27T16:31:50.718Z,1.70
2022-12-27T16:34:31.659Z,2.17
2022-12-27T16:37:02.468Z,1.90
2022-12-27T16:39:41.489Z,1.63
2022-12-27T16:42:11.644Z,1.70
2022-12-27T16:45:06.694Z,1.75
2022-12-27T16:47:42.776Z,1.48
2022-12-27T16:50:40.893Z,1.67
2022-12-27T16:53:50.950Z,1.85
2022-12-27T16:56:42.898Z,3.15
2022-12-27T16:59:54.257Z,1.80
2022-12-27T17:02:47.602Z,1.65
2022-12-27T17:05:17.635Z,2.10
2022-12-27T17:07:56.307Z,1.67
2022-12-27T17:10:29.349Z,1.63
2022-12-27T17:13:02.863Z,1.70
2022-12-27T17:15:33.630Z,1.75
2022-12-27T17:18:20.679Z,1.83
2022-12-27T17:21:08.056Z,1.98
2022-12-27T17:23:48.535Z,1.95
2022-12-27T17:26:36.671Z,2.25
2022-12-27T17:29:29.697Z,2.45
2022-12-27T17:32:15.774Z,1.45
2022-12-27T17:35:08.330Z,1.75
2022-12-27T17:37:44.657Z,1.42
2022-12-27T17:40:41.063Z,1.55
2022-12-27T17:43:54.676Z,1.48
2022-12-27T17:46:52.320Z,1.88
2022-12-27T17:49:31.591Z,1.48
2022-12-27T17:52:21.445Z,1.58
2022-12-27T17:55:09.813Z,1.50
2022-12-27T17:57:55.352Z,1.60
2022-12-27T18:00:32.343Z,1.70
2022-12-27T18:03:08.895Z,1.42
2022-12-27T18:05:45.303Z,2.00
2022-12-27T18:08:29.941Z,1.67
2022-12-27T18:11:00.723Z,1.50
2022-12-27T18:13:35.754Z,1.80
2022-12-27T18:16:18.405Z,2.53
2022-12-27T18:18:52.694Z,2.75
2022-12-27T18:21:26.146Z,1.70
2022-12-27T18:23:57.576Z,1.63
2022-12-27T18:26:42.174Z,1.92
2022-12-27T18:29:13.925Z,1.95
2022-12-27T18:31:50.756Z,1.90
2022-12-27T18:34:28.811Z,1.60
2022-12-27T18:37:22.206Z,1.45
2022-12-27T18:40:03.102Z,1.58
2022-12-27T18:42:41.449Z,1.60
2022-12-27T18:45:24.564Z,2.22
2022-12-27T18:47:56.760Z,1.67
2022-12-27T18:50:29.917Z,1.88
2022-12-27T18:53:04.199Z,1.77
2022-12-27T18:55:35.892Z,1.60
2022-12-27T18:58:09.042Z,1.95
2022-12-27T19:01:12.262Z,1.80
2022-12-27T19:03:42.394Z,1.73
2022-12-27T19:06:14.767Z,1.88
2022-12-27T19:08:52.842Z,1.90
2022-12-27T19:11:34.604Z,2.20
2022-12-27T19:14:06.682Z,2.10
2022-12-27T19:16:37.854Z,1.92
2022-12-27T19:19:17.551Z,1.90
2022-12-27T19:21:48.248Z,1.73
2022-12-27T19:24:30.562Z,1.90
2022-12-27T19:27:15.903Z,1.90
2022-12-27T19:29:51.308Z,2.08
2022-12-27T19:32:28.361Z,2.38
2022-12-27T19:35:00.812Z,2.42
2022-12-27T19:37:33.318Z,1.77
2022-12-27T19:40:03.593Z,1.90
2022-12-27T19:42:36.017Z,1.92
2022-12-27T19:45:06.259Z,2.13
2022-12-27T19:47:40.923Z,1.98
2022-12-27T19:50:18.220Z,2.00
2022-12-27T19:52:50.234Z,1.55
2022-12-27T19:55:26.528Z,1.40
2022-12-27T19:57:58.881Z,1.80
2022-12-27T20:00:29.010Z,1.65
2022-12-27T20:02:59.622Z,1.80
2022-12-27T20:06:13.557Z,1.73
2022-12-27T20:08:36.617Z,2.05
2022-12-27T20:11:09.431Z,2.03
2022-12-27T20:13:39.949Z,1.80
2022-12-27T20:16:13.168Z,2.17
2022-12-27T20:18:45.084Z,2.13
2022-12-27T20:21:18.269Z,2.20
2022-12-27T20:23:49.526Z,1.58
2022-12-27T20:26:23.299Z,1.95
2022-12-27T20:28:54.628Z,2.00
2022-12-27T20:31:24.739Z,2.63
2022-12-27T20:33:57.253Z,2.17
2022-12-27T20:36:27.364Z,1.80
2022-12-27T20:39:00.691Z,1.63
2022-12-27T20:41:30.888Z,1.75
2022-12-27T20:44:01.663Z,2.17
2022-12-27T20:46:31.780Z,1.95
2022-12-27T20:49:02.536Z,1.77
2022-12-27T20:51:36.917Z,2.75
2022-12-27T20:54:07.485Z,2.28
2022-12-27T20:56:37.867Z,1.88
2022-12-27T20:59:08.554Z,1.70
2022-12-27T21:01:39.069Z,3.55
2022-12-27T21:04:10.644Z,2.20
2022-12-27T21:06:40.799Z,3.42
2022-12-27T21:09:11.303Z,1.90
2022-12-27T21:11:41.375Z,2.13
2022-12-27T21:14:13.103Z,2.10
2022-12-27T21:16:43.151Z,2.30
2022-12-27T21:19:14.249Z,2.00
2022-12-27T21:21:46.496Z,2.70
2022-12-27T21:24:17.076Z,2.30
2022-12-27T21:26:54.568Z,2.30
2022-12-27T21:29:27.540Z,2.95
2022-12-27T21:31:57.722Z,3.97
2022-12-27T21:34:28.364Z,2.95
2022-12-27T21:36:58.515Z,2.65
2022-12-27T21:39:29.154Z,2.50
2022-12-27T21:41:59.165Z,2.65
2022-12-27T21:44:34.021Z,2.05
2022-12-27T21:47:04.148Z,1.83
2022-12-27T21:49:35.979Z,2.15
2022-12-27T21:52:06.293Z,2.22
2022-12-27T21:54:36.789Z,2.03
2022-12-27T21:57:08.025Z,1.92
2022-12-27T21:59:39.537Z,1.90
2022-12-27T22:02:10.879Z,2.08
2022-12-27T22:04:41.654Z,1.83
2022-12-27T22:07:11.740Z,2.33
2022-12-27T22:09:42.239Z,2.80
2022-12-27T22:12:12.255Z,2.58
2022-12-27T22:14:42.920Z,2.50
2022-12-27T22:17:13.003Z,2.33
2022-12-27T22:19:43.478Z,2.53
2022-12-27T22:22:13.558Z,2.20
2022-12-27T22:24:44.117Z,2.30
2022-12-27T22:27:15.106Z,2.33
2022-12-27T22:29:46.735Z,2.38
2022-12-27T22:32:16.824Z,2.50
2022-12-27T22:34:47.394Z,2.63
2022-12-27T22:37:17.568Z,2.55
2022-12-27T22:39:48.102Z,2.15
2022-12-27T22:42:18.223Z,2.15
2022-12-27T22:44:48.795Z,1.92
2022-12-27T22:47:27.637Z,2.10
2022-12-27T22:49:58.685Z,1.80
2022-12-27T22:52:28.761Z,2.13
2022-12-27T22:55:04.910Z,2.13
2022-12-27T22:57:36.834Z,2.08
2022-12-27T23:00:13.780Z,2.10
2022-12-27T23:02:44.085Z,2.35
2022-12-27T23:05:15.149Z,1.80
2022-12-27T23:08:06.159Z,2.20
2022-12-27T23:13:05.610Z,2.03
2022-12-27T23:15:38.965Z,1.98
2022-12-27T23:18:09.089Z,1.75
2022-12-27T23:20:39.635Z,2.20
2022-12-27T23:23:29.655Z,2.35
2022-12-27T23:26:10.333Z,1.90
2022-12-27T23:28:42.185Z,2.17
2022-12-27T23:31:13.830Z,2.08
2022-12-27T23:33:45.176Z,2.47
2022-12-27T23:36:16.481Z,2.05
2022-12-27T23:38:47.437Z,2.28
2022-12-27T23:41:23.906Z,2.17
2022-12-27T23:43:55.985Z,2.72
2022-12-27T23:46:30.071Z,2.58
2022-12-27T23:49:05.627Z,1.92
2022-12-27T23:51:36.443Z,2.58
2022-12-27T23:54:06.518Z,2.53
2022-12-27T23:56:37.090Z,2.78
2022-12-27T23:59:10.536Z,3.10
